Terminal Aerodrome Forecast
Issued by NWS

Home | Current Version | Previous Version | Text Only | Print | Product List | Glossary On
Versions: 1 2 3 4 5 6 7 8 9 10 11 12 13 14 15 16 17 18
000
FTUS43 KDVN 181700
TAFBRL
TAF
KBRL 181725Z 1818/1918 VRB03KT P6SM SCT025 OVC080
      TEMPO 1818/1820 -SHSN BKN025
     FM190000 VRB02KT P6SM BKN040
     FM191400 VRB03KT 6SM BR OVC025=

USA.gov is the U.S. government's official web portal to all federal, state and local government web resources and services.